Latest Coastal Weather Observations for Lockhart River

IDQ60701

Issued at 3:21 am EST Saturday 25 February 2017 (issued every 10 minutes, with the page automatically refreshed every 10 minutes)

About coastal observations | Map of coastal stations | Coastal observations for QLD | Marine services | Other Formats
Station Details ID: 028008 Name: LOCKHART RIVER AIRPORT Lat: -12.79 Lon: 143.30 Height: 18.5 m
Data from the previous 72 hours. | See also: Recent months at Lockhart River
Date/Time
EST
Temp
°C
Wind Pressure Rain since
9am
mm
Weather Cloud Vis
km
Sea
Height
m
Swell
Dir  Spd
kts
Gust
kts
hPa Trend Height
m
Period
s
Dir
25/03:00am 25.0 CALM 0 0 1008.6 - 0.6 - Mostly clear - - - - -
25/02:30am 25.2 CALM 0 0 1008.7 - 0.6 - - - - - - -
25/02:00am 25.5 CALM 0 0 1008.8 - 0.6 - Partly cloudy - - - - -
25/01:30am 25.6 CALM 0 0 1008.9 - 0.6 - Partly cloudy - - - - -
25/01:00am 25.8 CALM 0 0 1009.7 - 0.6 - Partly cloudy - - - - -
25/12:30am 25.7 CALM 0 4 1009.7 - 0.6 - Partly cloudy - - - - -
25/12:00am 26.2 CALM 0 4 1010.0 - 0.6 Recent precip. Partly cloudy - - - - -
 
Date/Time
EST
Temp
°C
Wind Pressure Rain since
9am
mm
Weather Cloud Vis
km
Sea
Height
m
Swell
Dir  Spd
kts
Gust
kts
hPa Trend Height
m
Period
s
Dir
24/11:30pm 26.2 CALM 0 0 1010.4 - 0.4 - Partly cloudy - - - - -
24/11:00pm 26.0 CALM 0 0 1010.6 - 0.0 - Partly cloudy - - - - -
24/10:30pm 26.0 CALM 0 0 1010.7 - 0.0 - Partly cloudy - - - - -
24/10:00pm 26.2 CALM 0 0 1010.6 - 0.0 - - - - - - -
24/09:30pm 26.3 CALM 0 0 1010.3 - 0.0 - - - - - - -
24/09:00pm 26.6 CALM 0 0 1010.1 - 0.0 - - - - - - -
24/08:30pm 27.4 CALM 0 0 1009.5 - 0.0 - - - - - - -
24/08:00pm 27.8 SSE 1 5 1009.4 - 0.0 - - - - - - -
24/07:30pm 28.3 SE 1 4 1009.2 - 0.0 - - - - - - -
24/07:00pm 28.5 ESE 4 6 1008.7 - 0.0 - - - - - - -
24/06:30pm 29.0 ESE 5 7 1008.5 - 0.0 - - - - - - -
24/06:00pm 29.8 ESE 6 9 1008.2 - 0.0 - Mostly clear - - - - -
24/05:30pm 29.9 E 7 11 1008.2 - 0.0 - Partly cloudy - - - - -
24/05:00pm 30.7 E 7 11 1007.4 - 0.0 - Partly cloudy - - - - -
24/04:30pm 30.7 E 10 14 1006.8 - 0.0 - - - - - - -
24/04:00pm 30.8 E 11 16 1007.5 - 0.0 - Partly cloudy - - - - -
24/03:30pm 31.1 E 9 13 1007.7 - 0.0 - Partly cloudy - - - - -
24/03:00pm 31.3 ESE 10 15 1008.1 - 0.0 - - - - - - -
24/02:30pm 31.4 E 8 12 1008.2 - 0.0 - Partly cloudy - - - - -
24/02:00pm 30.9 E 10 14 1008.6 - 0.0 - - - - - - -
24/01:30pm 30.9 ESE 10 13 1009.1 - 0.0 - Partly cloudy - - - - -
24/01:00pm 31.3 ESE 9 12 1009.4 - 0.0 - Partly cloudy - - - - -
24/12:30pm 31.2 ESE 9 13 1010.1 - 0.0 - Partly cloudy - - - - -
24/12:00pm 31.0 E 11 15 1010.5 - 0.0 - Mostly clear - - - - -
24/11:30am 31.1 ESE 7 12 1010.8 - 0.0 - Partly cloudy - - - - -
24/11:00am 31.1 ESE 9 15 1011.2 - 0.0 - Partly cloudy - - - - -
24/10:30am 30.9 ESE 9 15 1011.4 - 0.0 - Partly cloudy - - - - -
24/10:00am 30.5 E 8 11 1011.8 - 0.0 - Partly cloudy - - - - -
24/09:30am 30.0 E 6 10 1011.8 - 0.0 - Partly cloudy - - - - -
24/09:00am 29.4 SSE 6 9 1012.1 - 0.2 - Mostly clear - - - - -
24/08:30am 28.6 SE 3 8 1012.1 - 0.2 - - - - - - -
24/08:00am 26.6 CALM 0 0 1012.1 - 0.2 - Partly cloudy - - - - -
24/07:30am 25.4 CALM 0 0 1011.6 - 0.2 - Partly cloudy - - - - -
24/07:00am 24.4 CALM 0 0 1011.3 - 0.2 - Partly cloudy - - - - -
24/06:30am 24.5 CALM 0 0 1010.9 - 0.2 - Partly cloudy - - - - -
24/06:00am 24.6 CALM 0 0 1010.4 - 0.2 - - - - - - -
24/05:30am 24.7 CALM 0 0 1010.1 - 0.2 - Partly cloudy - - - - -
24/05:00am 24.7 CALM 0 0 1009.9 - 0.2 - - - - - - -
24/04:30am 24.7 CALM 0 0 1009.8 - 0.2 - - - - - - -
24/04:00am 25.0 CALM 0 0 1009.8 - 0.2 - Partly cloudy - - - - -
24/03:30am 25.1 CALM 0 0 1009.8 - 0.2 - Partly cloudy - - - - -
24/03:00am 25.3 CALM 0 0 1009.9 - 0.2 Rain - - - - - -
24/02:30am 25.5 CALM 0 0 1010.2 - 0.0 - - - - - - -
24/02:00am 25.7 CALM 0 0 1010.7 - 0.0 - Partly cloudy - - - - -
24/01:30am 25.8 CALM 0 0 1011.1 - 0.0 - Partly cloudy - - - - -
24/01:00am 26.0 CALM 0 0 1011.6 - 0.0 - Partly cloudy - - - - -
24/12:30am 25.8 CALM 0 0 1011.8 - 0.0 - Partly cloudy - - - - -
24/12:00am 25.6 CALM 0 0 1011.8 - 0.0 - - - - - - -
 
Date/Time
EST
Temp
°C
Wind Pressure Rain since
9am
mm
Weather Cloud Vis
km
Sea
Height
m
Swell
Dir  Spd
kts
Gust
kts
hPa Trend Height
m
Period
s
Dir
23/11:30pm 26.0 CALM 0 0 1011.8 - 0.0 - Partly cloudy - - - - -
23/11:00pm 26.0 CALM 0 0 1012.0 - 0.0 - - - - - - -
23/10:30pm 26.1 CALM 0 0 1011.9 - 0.0 - Partly cloudy - - - - -
23/10:00pm 26.3 CALM 0 0 1011.8 - 0.0 - - - - - - -
23/09:30pm 27.0 CALM 0 0 1011.5 - 0.0 - Partly cloudy - - - - -
23/09:00pm 27.7 SSE 1 4 1011.0 - 0.0 - Mostly clear - - - - -
23/08:30pm 27.7 SE 3 6 1010.7 - 0.0 - - - - - - -
23/08:00pm 27.9 SE 5 6 1010.5 - 0.0 - - - - - - -
23/07:30pm 28.4 SE 8 10 1010.1 - 0.0 - - - - - - -
23/07:00pm 28.7 ESE 8 10 1009.8 - 0.0 - - - - - - -
23/06:30pm 29.4 ESE 8 11 1009.4 - 0.0 - - - - - - -
23/06:00pm 29.8 ESE 9 13 1009.1 - 0.0 - - - - - - -
23/05:30pm 30.5 ESE 9 13 1009.0 - 0.0 - - - - - - -
23/05:00pm 30.2 E 10 13 1008.6 - 0.0 - - - - - - -
23/04:30pm 30.6 E 9 12 1008.4 - 0.0 - - - - - - -
23/04:00pm 30.5 E 9 14 1008.6 - 0.0 - - - - - - -
23/03:30pm 30.4 E 9 14 1008.9 - 0.0 - - - - - - -
23/03:00pm 31.5 E 9 13 1009.0 - 0.0 - - - - - - -
23/02:30pm 31.4 E 7 10 1009.4 - 0.0 - - - - - - -
23/02:00pm 30.9 E 7 10 1009.8 - 0.0 - - - - - - -
23/01:30pm 30.8 E 7 12 1010.2 - 0.0 - - - - - - -
23/01:00pm 30.9 ESE 8 13 1010.7 - 0.0 - - - - - - -
23/12:30pm 30.8 ESE 7 12 1011.4 - 0.0 - Partly cloudy - - - - -
23/12:00pm 30.6 E 7 9 1012.1 - 0.0 - - - - - - -
23/11:30am 30.9 E 7 9 1012.2 - 0.0 - Partly cloudy - - - - -
23/11:00am 30.3 ENE 5 9 1012.4 - 0.0 - Partly cloudy - - - - -
23/10:30am 30.1 E 6 8 1012.7 - 0.0 - Partly cloudy - - - - -
23/10:13am 29.7 E 3 6 1012.6 - 0.0 - Partly cloudy - - - - -
23/10:00am 28.9 ESE 3 7 1012.9 - 0.0 - Partly cloudy - - - - -
23/09:46am 28.8 CALM 0 5 1012.9 - 0.0 - Partly cloudy - - - - -
23/09:30am 28.5 E 2 6 1013.1 - 0.0 - Partly cloudy - - - - -
23/09:00am 27.9 CALM 0 4 1013.1 - 1.2 - - - - - - -
23/08:30am 26.4 CALM 0 0 1012.9 - 1.2 - - - - - - -
23/08:00am 24.9 CALM 0 0 1012.7 - 1.2 - - - - - - -
23/07:30am 23.8 WNW 1 4 1012.2 - 1.2 - - - - - - -
23/07:00am 22.7 WNW 2 5 1011.8 - 1.2 - - - - - - -
23/06:30am 22.6 CALM 0 0 1011.5 - 1.2 - - - - - - -
23/06:00am 22.5 CALM 0 0 1011.5 - 1.2 - - - - - - -
23/05:30am 22.7 CALM 0 0 1011.3 - 1.2 - - - - - - -
23/05:00am 22.8 CALM 0 0 1011.1 - 1.2 - - - - - - -
23/04:30am 23.0 CALM 0 0 1010.8 - 1.2 - - - - - - -
23/04:00am 22.9 CALM 0 0 1010.8 - 1.2 - Partly cloudy - - - - -
23/03:30am 23.0 NW 1 4 1010.7 - 1.0 - Partly cloudy - - - - -
23/03:00am 23.1 WNW 1 4 1011.0 - 1.0 - Mostly clear - - - - -
23/02:30am 23.3 CALM 0 0 1011.3 - 1.0 - - - - - - -
23/02:00am 23.6 CALM 0 0 1011.7 - 1.0 - - - - - - -
23/01:32am 23.7 CALM 0 0 1012.3 - 1.0 - Partly cloudy - - - - -
23/01:30am 23.8 CALM 0 0 1012.4 - 1.0 - Partly cloudy - - - - -
23/01:00am 23.9 CALM 0 0 1012.7 - 1.0 - Partly cloudy - - - - -
23/12:53am 24.0 CALM 0 0 1012.9 - 1.0 - Partly cloudy - - - - -
23/12:30am 24.1 CALM 0 0 1013.0 - 1.0 - - - - - - -
23/12:00am 24.1 CALM 0 0 1013.1 - 1.0 - - - - - - -
 
Date/Time
EST
Temp
°C
Wind Pressure Rain since
9am
mm
Weather Cloud Vis
km
Sea
Height
m
Swell
Dir  Spd
kts
Gust
kts
hPa Trend Height
m
Period
s
Dir
22/11:30pm 24.1 CALM 0 0 1013.0 - 1.0 - Partly cloudy - - - - -
22/11:00pm 24.2 CALM 0 0 1013.0 - 1.0 - Partly cloudy - - - - -
22/10:30pm 24.4 CALM 0 0 1012.3 - 1.0 - - - - - - -
22/10:00pm 24.6 CALM 0 0 1012.1 - 1.0 - - - - - - -
22/09:30pm 24.5 CALM 0 0 1012.0 - 1.0 - - - - - - -
22/09:00pm 24.6 CALM 0 0 1011.9 - 1.0 - Cloudy - - - - -
22/08:30pm 24.7 SW 6 7 1011.6 - 1.0 - - - - - - -
22/08:00pm 24.8 CALM 0 0 1011.5 - 1.0 - - - - - - -
22/07:30pm 24.9 CALM 0 0 1011.4 - 1.0 - Partly cloudy - - - - -
22/07:00pm 24.9 WSW 1 5 1010.9 - 1.0 - Partly cloudy - - - - -
22/06:30pm 25.5 S 3 6 1010.7 - 0.4 - Partly cloudy - - - - -
22/06:00pm 25.5 CALM 0 4 1010.1 - 0.0 - Cloudy - - - - -
22/05:30pm 25.5 NW 7 10 1009.8 - 0.0 - Cloudy - - - - -
22/05:00pm 26.0 NW 10 15 1009.5 - 0.0 - Partly cloudy - - - - -
22/04:30pm 28.6 NNE 10 18 1009.2 - 0.0 - Partly cloudy - - - - -
22/04:00pm 30.4 NNE 8 13 1008.9 - 0.0 - Partly cloudy - - - - -
22/03:30pm 30.4 NE 9 15 1008.8 - 0.0 - Partly cloudy - - - - -
22/03:00pm 30.8 ENE 8 14 1008.8 - 0.0 - Cloudy - - - - -
22/02:30pm 30.8 ENE 9 14 1008.8 - 0.0 - Partly cloudy - - - - -
22/02:00pm 30.9 NE 10 13 1009.5 - 0.0 - Partly cloudy - - - - -
22/01:30pm 30.7 E 10 17 1009.7 - 0.0 - Partly cloudy - - - - -
22/01:00pm 30.3 ENE 9 13 1010.5 - 0.0 - Partly cloudy - - - - -
22/12:30pm 30.7 E 9 15 1010.9 - 0.0 - Partly cloudy - - - - -
22/12:00pm 30.2 NE 3 9 1011.2 - 0.0 - Cloudy - - - - -
22/11:30am 28.8 N 9 15 1011.7 - 0.0 - Partly cloudy - - - - -
22/11:00am 30.8 NE 7 12 1012.0 - 0.0 - Partly cloudy - - - - -
22/10:30am 29.5 E 3 8 1012.4 - 0.0 - Partly cloudy - - - - -
22/10:00am 28.1 WSW 4 5 1012.6 - 0.0 - Partly cloudy - - - - -
22/09:30am 27.6 CALM 0 0 1012.9 - 0.0 - Partly cloudy - - - - -
22/09:00am 26.6 WNW 1 5 1012.8 - 4.8 - Mostly cloudy - - - - -
22/08:30am 26.0 WNW 1 5 1012.4 - 4.8 - - - - - - -
22/08:00am 25.1 SE 3 5 1012.2 - 4.8 - Partly cloudy - - - - -
22/07:38am 25.0 SE 3 5 1011.9 - 4.8 - Partly cloudy - - - - -
22/07:30am 24.9 SE 1 5 1011.9 - 4.8 - Partly cloudy - - - - -
22/07:00am 24.3 CALM 0 0 1011.7 - 4.8 - Partly cloudy - - - - -
22/06:40am 24.4 CALM 0 0 1011.4 - 4.8 - Partly cloudy - - - - -
22/06:30am 24.3 CALM 0 0 1011.2 - 4.8 - Partly cloudy - - - - -
22/06:00am 24.4 CALM 0 0 1011.1 - 4.8 - Cloudy - - - - -
22/05:30am 24.5 CALM 0 0 1011.0 - 4.8 - Partly cloudy - - - - -
22/05:00am 24.2 N 1 4 1010.6 - 4.8 - Partly cloudy - - - - -
22/04:41am 24.2 NW 5 7 1010.5 - 4.8 - Partly cloudy - - - - -
22/04:30am 24.5 NW 3 6 1010.4 - 4.8 - Partly cloudy - - - - -
22/04:00am 24.2 CALM 0 0 1010.0 - 4.8 - Partly cloudy - - - - -
22/03:30am 24.4 CALM 0 0 1010.1 - 4.8 - Cloudy - - - - -

Other Formats:

Comma delimited format used in spreadsheet applications
http://www.bom.gov.au/fwo/IDQ60701/IDQ60701.94186.axf

JavaScript Object Notation format (JSON) in row-major order
http://www.bom.gov.au/fwo/IDQ60701/IDQ60701.94186.json